createdAt,value
2018-06-21T00:00:10.925Z,21
2018-06-21T00:00:23.398Z,21
2018-06-21T00:00:35.838Z,21
2018-06-21T00:00:48.339Z,21
2018-06-21T00:01:00.785Z,20.9444444444
2018-06-21T00:01:13.343Z,21
2018-06-21T00:01:25.804Z,21
2018-06-21T00:01:38.217Z,21
2018-06-21T00:01:50.645Z,20.9444444444
2018-06-21T00:02:03.121Z,21
2018-06-21T00:02:15.535Z,20.9444444444
2018-06-21T00:02:27.946Z,20.9444444444
2018-06-21T00:02:40.350Z,21
2018-06-21T00:02:52.755Z,20.9444444444
2018-06-21T00:03:05.180Z,20.9444444444
2018-06-21T00:03:17.600Z,20.9444444444
2018-06-21T00:03:30.028Z,20.9444444444
2018-06-21T00:03:42.520Z,20.9444444444
2018-06-21T00:03:54.922Z,20.9444444444
2018-06-21T00:04:07.323Z,20.9444444444
2018-06-21T00:04:19.724Z,20.8888888889
2018-06-21T00:04:32.119Z,20.8888888889
2018-06-21T00:04:44.522Z,20.9444444444
2018-06-21T00:04:56.924Z,20.8888888889
2018-06-21T00:05:09.371Z,20.8888888889
2018-06-21T00:05:21.787Z,20.8888888889
2018-06-21T00:05:34.205Z,20.8888888889
2018-06-21T00:05:46.641Z,20.8888888889
2018-06-21T00:05:59.042Z,20.8888888889
2018-06-21T00:06:11.476Z,20.8333333333
2018-06-21T00:06:23.911Z,20.8333333333
2018-06-21T00:06:36.369Z,20.8888888889
2018-06-21T00:06:48.784Z,20.8888888889
2018-06-21T00:07:01.175Z,20.8333333333
2018-06-21T00:07:13.577Z,20.8333333333
2018-06-21T00:07:26.113Z,20.8333333333
2018-06-21T00:07:38.518Z,20.8333333333
2018-06-21T00:07:50.907Z,20.8333333333
2018-06-21T00:08:03.301Z,20.8333333333
2018-06-21T00:08:15.742Z,20.8333333333
2018-06-21T00:08:28.156Z,20.8333333333
2018-06-21T00:08:40.567Z,20.8333333333
2018-06-21T00:08:52.962Z,20.8333333333
2018-06-21T00:09:05.399Z,20.7777777778
2018-06-21T00:09:17.800Z,20.7777777778
2018-06-21T00:09:30.219Z,20.8333333333
2018-06-21T00:09:42.646Z,20.7777777778
2018-06-21T00:09:55.047Z,20.8333333333
2018-06-21T00:10:07.445Z,20.7777777778
2018-06-21T00:10:19.862Z,20.7777777778
2018-06-21T00:10:32.267Z,20.7777777778
2018-06-21T00:10:44.666Z,20.7777777778
2018-06-21T00:10:57.081Z,20.7777777778
2018-06-21T00:11:09.503Z,20.7777777778
2018-06-21T00:11:21.921Z,20.7777777778
2018-06-21T00:11:34.308Z,20.7777777778
2018-06-21T00:11:46.793Z,20.7777777778
2018-06-21T00:11:59.206Z,20.7222222222
2018-06-21T00:12:11.628Z,20.7777777778
2018-06-21T00:12:24.076Z,20.7222222222
2018-06-21T00:12:36.629Z,20.7222222222
2018-06-21T00:12:49.035Z,20.7777777778
2018-06-21T00:13:01.447Z,20.7222222222
2018-06-21T00:13:13.840Z,20.7222222222
2018-06-21T00:13:26.248Z,20.7222222222
2018-06-21T00:13:38.659Z,20.7222222222
2018-06-21T00:13:51.070Z,20.7222222222
2018-06-21T00:14:03.507Z,20.7222222222
2018-06-21T00:14:15.901Z,20.7222222222
2018-06-21T00:14:28.336Z,20.7222222222
2018-06-21T00:14:40.744Z,20.7222222222
2018-06-21T00:14:53.160Z,20.6666666667
2018-06-21T00:15:05.569Z,20.6666666667
2018-06-21T00:15:17.971Z,20.6666666667
2018-06-21T00:15:30.384Z,20.6666666667
2018-06-21T00:15:42.836Z,20.6666666667
2018-06-21T00:15:55.270Z,20.7222222222
2018-06-21T00:16:07.703Z,20.6666666667
2018-06-21T00:16:20.105Z,20.6666666667
2018-06-21T00:16:32.507Z,20.6666666667
2018-06-21T00:16:44.935Z,20.6666666667
2018-06-21T00:16:57.350Z,20.6666666667
2018-06-21T00:17:09.724Z,20.6666666667
2018-06-21T00:17:22.144Z,20.6111111111
2018-06-21T00:17:34.588Z,20.6666666667
2018-06-21T00:17:47.114Z,20.6666666667
2018-06-21T00:17:59.541Z,20.6666666667
2018-06-21T00:18:11.976Z,20.6666666667
2018-06-21T00:18:24.452Z,20.6666666667
2018-06-21T00:18:37.743Z,20.6111111111
2018-06-21T00:18:50.540Z,20.6666666667
2018-06-21T00:19:02.964Z,20.6666666667
2018-06-21T00:19:15.372Z,20.6111111111
2018-06-21T00:19:27.782Z,20.6111111111
2018-06-21T00:19:40.177Z,20.6111111111
2018-06-21T00:19:52.558Z,20.6111111111
2018-06-21T00:20:04.954Z,20.6111111111
2018-06-21T00:20:17.378Z,20.6111111111
2018-06-21T00:20:29.794Z,20.5555555556
2018-06-21T00:20:42.199Z,20.5555555556
2018-06-21T00:20:54.636Z,20.6111111111
2018-06-21T00:21:07.047Z,20.6111111111
2018-06-21T00:21:19.481Z,20.5555555556
2018-06-21T00:21:31.883Z,20.6111111111
2018-06-21T00:21:44.306Z,20.5555555556
2018-06-21T00:21:56.749Z,20.5555555556
2018-06-21T00:22:09.179Z,20.5555555556
2018-06-21T00:22:21.582Z,20.5555555556
2018-06-21T00:22:33.982Z,20.5555555556
2018-06-21T00:22:46.392Z,20.5555555556
2018-06-21T00:22:58.868Z,20.5555555556
2018-06-21T00:23:11.322Z,20.5555555556
2018-06-21T00:23:23.786Z,20.5555555556
2018-06-21T00:23:36.198Z,20.5
2018-06-21T00:23:48.619Z,20.5555555556
2018-06-21T00:24:01.032Z,20.5
2018-06-21T00:24:13.468Z,20.5
2018-06-21T00:24:25.892Z,20.5
2018-06-21T00:24:38.293Z,20.5555555556
2018-06-21T00:24:50.708Z,20.5555555556
2018-06-21T00:25:03.127Z,20.5
2018-06-21T00:25:15.534Z,20.5
2018-06-21T00:25:27.931Z,20.5
2018-06-21T00:25:40.354Z,20.5
2018-06-21T00:25:52.761Z,20.5
2018-06-21T00:26:05.178Z,20.5
2018-06-21T00:26:17.586Z,20.5
2018-06-21T00:26:29.992Z,20.5
2018-06-21T00:26:42.382Z,20.5
2018-06-21T00:26:54.799Z,20.5
2018-06-21T00:27:07.225Z,20.5
2018-06-21T00:27:19.672Z,20.5
2018-06-21T00:27:32.086Z,20.4444444444
2018-06-21T00:27:44.764Z,20.4444444444
2018-06-21T00:27:57.152Z,20.5
2018-06-21T00:28:09.588Z,20.5
2018-06-21T00:28:21.981Z,20.4444444444
2018-06-21T00:28:34.390Z,20.4444444444
2018-06-21T00:28:46.896Z,20.4444444444
2018-06-21T00:28:59.549Z,20.4444444444
2018-06-21T00:29:12.048Z,20.4444444444
2018-06-21T00:29:25.040Z,20.4444444444
2018-06-21T00:29:37.561Z,20.4444444444
2018-06-21T00:29:49.972Z,20.4444444444
2018-06-21T00:30:02.425Z,20.4444444444
2018-06-21T00:30:14.834Z,20.4444444444
2018-06-21T00:30:27.241Z,20.3888888889
2018-06-21T00:30:39.644Z,20.4444444444
2018-06-21T00:30:52.101Z,20.3888888889
2018-06-21T00:31:04.506Z,20.3888888889
2018-06-21T00:31:16.964Z,20.4444444444
2018-06-21T00:31:29.366Z,20.3888888889
2018-06-21T00:31:41.757Z,20.3888888889
2018-06-21T00:31:54.200Z,20.3888888889
2018-06-21T00:32:06.609Z,20.3888888889
2018-06-21T00:32:19.011Z,20.3888888889
2018-06-21T00:32:31.414Z,20.3888888889
2018-06-21T00:32:43.834Z,20.3888888889
2018-06-21T00:32:56.254Z,20.3888888889
2018-06-21T00:33:08.651Z,20.3888888889
2018-06-21T00:33:21.051Z,20.3888888889
2018-06-21T00:33:33.460Z,20.3333333333
2018-06-21T00:33:45.867Z,20.3888888889
2018-06-21T00:33:58.574Z,20.3888888889
2018-06-21T00:34:11.029Z,20.3888888889
2018-06-21T00:34:23.429Z,20.3888888889
2018-06-21T00:34:35.819Z,20.3333333333
2018-06-21T00:34:48.223Z,20.3888888889
2018-06-21T00:35:00.642Z,20.3888888889
2018-06-21T00:35:13.058Z,20.3333333333
2018-06-21T00:35:25.453Z,20.3333333333
2018-06-21T00:35:37.846Z,20.3333333333
2018-06-21T00:35:50.246Z,20.3333333333
2018-06-21T00:36:02.672Z,20.3333333333
2018-06-21T00:36:15.097Z,20.3333333333
2018-06-21T00:36:27.515Z,20.3333333333
2018-06-21T00:36:39.928Z,20.3333333333
2018-06-21T00:36:52.327Z,20.3333333333
2018-06-21T00:37:04.727Z,20.3333333333
2018-06-21T00:37:17.123Z,20.2777777778
2018-06-21T00:37:29.573Z,20.2777777778
2018-06-21T00:37:41.991Z,20.2777777778
2018-06-21T00:37:54.416Z,20.2777777778
2018-06-21T00:38:06.847Z,20.3333333333
2018-06-21T00:38:19.240Z,20.2777777778
2018-06-21T00:38:31.652Z,20.2777777778
2018-06-21T00:38:44.044Z,20.2777777778
2018-06-21T00:38:56.608Z,20.2777777778
2018-06-21T00:39:09.008Z,20.2777777778
2018-06-21T00:39:21.434Z,20.2777777778
2018-06-21T00:39:34.103Z,20.2777777778
2018-06-21T00:39:46.520Z,20.2222222222
2018-06-21T00:39:58.932Z,20.2222222222
2018-06-21T00:40:11.352Z,20.2222222222
2018-06-21T00:40:23.912Z,20.2222222222
2018-06-21T00:40:36.312Z,20.2222222222
2018-06-21T00:40:48.716Z,20.2222222222
2018-06-21T00:41:01.108Z,20.2222222222
2018-06-21T00:41:13.508Z,20.2222222222
2018-06-21T00:41:25.906Z,20.2222222222
2018-06-21T00:41:38.294Z,20.2222222222
2018-06-21T00:41:50.708Z,20.2222222222
2018-06-21T00:42:03.219Z,20.2222222222
2018-06-21T00:42:15.606Z,20.2222222222
2018-06-21T00:42:28.027Z,20.2222222222
2018-06-21T00:42:40.429Z,20.1666666667
2018-06-21T00:42:52.817Z,20.2222222222
2018-06-21T00:43:05.211Z,20.1666666667
2018-06-21T00:43:17.612Z,20.1666666667
2018-06-21T00:43:30.015Z,20.1666666667
2018-06-21T00:43:42.433Z,20.1666666667
2018-06-21T00:43:54.839Z,20.1666666667
2018-06-21T00:44:07.244Z,20.1666666667
2018-06-21T00:44:19.644Z,20.1666666667
2018-06-21T00:44:32.066Z,20.1666666667
2018-06-21T00:44:44.468Z,20.1666666667
2018-06-21T00:44:56.872Z,20.1666666667
2018-06-21T00:45:09.285Z,20.1666666667
2018-06-21T00:45:21.692Z,20.1111111111
2018-06-21T00:45:34.094Z,20.1666666667
2018-06-21T00:45:46.474Z,20.1666666667
2018-06-21T00:45:59.123Z,20.1666666667
2018-06-21T00:46:11.565Z,20.1111111111
2018-06-21T00:46:23.962Z,20.1666666667
2018-06-21T00:46:36.504Z,20.1666666667
2018-06-21T00:46:48.882Z,20.1111111111
2018-06-21T00:47:01.289Z,20.1111111111
2018-06-21T00:47:13.687Z,20.1111111111
2018-06-21T00:47:26.097Z,20.1111111111
2018-06-21T00:47:38.491Z,20.1111111111
2018-06-21T00:47:50.883Z,20.1111111111
2018-06-21T00:48:03.298Z,20.1111111111
2018-06-21T00:48:15.704Z,20.1111111111
2018-06-21T00:48:28.095Z,20.1111111111
2018-06-21T00:48:40.653Z,20.0555555556
2018-06-21T00:48:53.083Z,20.0555555556
2018-06-21T00:49:05.527Z,20.0555555556
2018-06-21T00:49:17.926Z,20.0555555556
2018-06-21T00:49:30.402Z,20.0555555556
2018-06-21T00:49:42.801Z,20.1111111111
2018-06-21T00:49:55.195Z,20.0555555556
2018-06-21T00:50:07.599Z,20.0555555556
2018-06-21T00:50:20.007Z,20.0555555556
2018-06-21T00:50:32.474Z,20.0555555556
2018-06-21T00:50:44.886Z,20.0555555556
2018-06-21T00:50:57.297Z,20.0555555556
2018-06-21T00:51:09.697Z,20.0555555556
2018-06-21T00:51:22.105Z,20.0555555556
2018-06-21T00:51:34.505Z,20.0555555556
2018-06-21T00:51:46.930Z,20.0555555556
2018-06-21T00:51:59.325Z,20.0555555556
2018-06-21T00:52:11.767Z,20.0555555556
2018-06-21T00:52:24.170Z,20.0555555556
2018-06-21T00:52:36.699Z,20.0555555556
2018-06-21T00:52:49.083Z,20
2018-06-21T00:53:01.515Z,20.0555555556
2018-06-21T00:53:13.923Z,20
2018-06-21T00:53:26.318Z,20
2018-06-21T00:53:38.711Z,20
2018-06-21T00:53:51.120Z,20
2018-06-21T00:54:03.533Z,20
2018-06-21T00:54:15.941Z,20
2018-06-21T00:54:28.356Z,20
2018-06-21T00:54:40.746Z,20
2018-06-21T00:54:53.179Z,20
2018-06-21T00:55:05.578Z,19.9444444444
2018-06-21T00:55:18.003Z,19.9444444444
2018-06-21T00:55:30.491Z,19.9444444444
2018-06-21T00:55:42.946Z,19.9444444444
2018-06-21T00:55:55.381Z,19.9444444444
2018-06-21T00:56:07.807Z,19.9444444444
2018-06-21T00:56:20.304Z,19.9444444444
2018-06-21T00:56:32.723Z,19.9444444444
2018-06-21T00:56:45.126Z,19.9444444444
2018-06-21T00:56:57.518Z,19.9444444444
2018-06-21T00:57:09.922Z,19.9444444444
2018-06-21T00:57:22.317Z,19.8888888889
2018-06-21T00:57:34.790Z,19.8888888889
2018-06-21T00:57:47.195Z,19.8888888889
2018-06-21T00:57:59.605Z,19.8888888889
2018-06-21T00:58:12.005Z,19.8888888889
2018-06-21T00:58:24.434Z,19.8888888889
2018-06-21T00:58:36.860Z,19.8888888889
2018-06-21T00:58:49.276Z,19.8888888889
2018-06-21T00:59:01.695Z,19.8888888889
2018-06-21T00:59:14.098Z,19.8888888889
2018-06-21T00:59:26.512Z,19.8333333333
2018-06-21T00:59:38.935Z,19.8333333333
2018-06-21T00:59:51.323Z,19.8888888889
2018-06-21T01:00:03.730Z,19.8333333333
2018-06-21T01:00:16.140Z,19.8333333333
2018-06-21T01:00:28.591Z,19.8333333333
2018-06-21T01:00:41.056Z,19.8333333333
2018-06-21T01:00:53.622Z,19.8333333333
2018-06-21T01:01:06.053Z,19.8333333333
2018-06-21T01:01:18.677Z,19.7777777778
2018-06-21T01:01:31.080Z,19.7777777778
2018-06-21T01:01:43.490Z,19.7777777778
2018-06-21T01:01:55.904Z,19.7777777778
2018-06-21T01:02:08.311Z,19.7777777778
2018-06-21T01:02:20.711Z,19.7777777778
2018-06-21T01:02:33.120Z,19.7777777778
2018-06-21T01:02:45.525Z,19.7777777778
2018-06-21T01:02:57.944Z,19.7777777778
2018-06-21T01:03:10.360Z,19.7777777778
2018-06-21T01:03:22.753Z,19.7222222222
2018-06-21T01:03:35.164Z,19.7222222222
2018-06-21T01:03:47.602Z,19.7222222222
2018-06-21T01:04:00.029Z,19.7222222222
2018-06-21T01:04:12.446Z,19.7222222222
2018-06-21T01:04:24.853Z,19.6666666667
2018-06-21T01:04:37.303Z,19.7222222222
2018-06-21T01:04:49.700Z,19.6666666667
2018-06-21T01:05:02.090Z,19.6666666667
2018-06-21T01:05:14.497Z,19.6666666667
2018-06-21T01:05:26.902Z,19.6666666667
2018-06-21T01:05:39.288Z,19.6666666667
2018-06-21T01:05:51.849Z,19.6666666667
2018-06-21T01:06:04.238Z,19.6666666667
2018-06-21T01:06:16.632Z,19.6111111111
2018-06-21T01:06:29.024Z,19.6111111111
2018-06-21T01:06:41.448Z,19.6666666667
2018-06-21T01:06:53.846Z,19.6111111111
2018-06-21T01:07:06.230Z,19.6111111111
2018-06-21T01:07:18.652Z,19.6111111111
2018-06-21T01:07:31.198Z,19.6111111111
2018-06-21T01:07:43.602Z,19.5555555556
2018-06-21T01:07:55.999Z,19.6111111111
2018-06-21T01:08:08.406Z,19.5555555556
2018-06-21T01:08:20.818Z,19.5555555556
2018-06-21T01:08:33.236Z,19.5555555556
2018-06-21T01:08:45.635Z,19.5555555556
2018-06-21T01:08:58.063Z,19.5555555556
2018-06-21T01:09:10.461Z,19.5555555556
2018-06-21T01:09:22.863Z,19.5555555556
2018-06-21T01:09:35.267Z,19.5555555556
2018-06-21T01:09:47.671Z,19.5
2018-06-21T01:10:00.119Z,19.5
2018-06-21T01:10:12.525Z,19.5
2018-06-21T01:10:24.922Z,19.5
2018-06-21T01:10:37.308Z,19.5
2018-06-21T01:10:49.715Z,19.5
2018-06-21T01:11:02.108Z,19.5
2018-06-21T01:11:14.508Z,19.5
2018-06-21T01:11:26.916Z,19.4444444444
2018-06-21T01:11:39.329Z,19.4444444444
2018-06-21T01:11:51.745Z,19.5
2018-06-21T01:12:04.424Z,19.4444444444
2018-06-21T01:12:16.865Z,19.4444444444
2018-06-21T01:12:29.262Z,19.4444444444
2018-06-21T01:12:41.664Z,19.4444444444
2018-06-21T01:12:54.082Z,19.4444444444
2018-06-21T01:13:06.485Z,19.4444444444
2018-06-21T01:13:18.892Z,19.4444444444
2018-06-21T01:13:31.298Z,19.4444444444
2018-06-21T01:13:43.694Z,19.3888888889
2018-06-21T01:13:56.085Z,19.3888888889
2018-06-21T01:14:08.462Z,19.3888888889
2018-06-21T01:14:20.855Z,19.3888888889
2018-06-21T01:14:33.253Z,19.3333333333
2018-06-21T01:14:45.647Z,19.3333333333
2018-06-21T01:14:58.026Z,19.3333333333
2018-06-21T01:15:10.426Z,19.3333333333
2018-06-21T01:15:22.844Z,19.3333333333
2018-06-21T01:15:35.293Z,19.3333333333
2018-06-21T01:15:47.709Z,19.3333333333
2018-06-21T01:16:00.134Z,19.3333333333
2018-06-21T01:16:12.536Z,19.3333333333
2018-06-21T01:16:24.932Z,19.3333333333
2018-06-21T01:16:37.347Z,19.3333333333
2018-06-21T01:16:49.735Z,19.2777777778
2018-06-21T01:17:02.400Z,19.3333333333
2018-06-21T01:17:14.805Z,19.3333333333
2018-06-21T01:17:27.217Z,19.3333333333
2018-06-21T01:17:39.649Z,19.3333333333
2018-06-21T01:17:52.201Z,19.3333333333
2018-06-21T01:18:04.615Z,19.2777777778
2018-06-21T01:18:17.018Z,19.2777777778
2018-06-21T01:18:29.419Z,19.2777777778
2018-06-21T01:18:41.825Z,19.2777777778
2018-06-21T01:18:54.236Z,19.2777777778
2018-06-21T01:19:06.644Z,19.2777777778
2018-06-21T01:19:19.049Z,19.2777777778
2018-06-21T01:19:31.456Z,19.2777777778
2018-06-21T01:19:43.869Z,19.2777777778
2018-06-21T01:19:56.346Z,19.2777777778
2018-06-21T01:20:08.743Z,19.2777777778
2018-06-21T01:20:21.149Z,19.2777777778
2018-06-21T01:20:33.565Z,19.3333333333
2018-06-21T01:20:45.959Z,19.2777777778
2018-06-21T01:20:58.364Z,19.2777777778
2018-06-21T01:21:10.761Z,19.2777777778
2018-06-21T01:21:23.188Z,19.2777777778
2018-06-21T01:21:35.582Z,19.2777777778
2018-06-21T01:21:47.976Z,19.3333333333
2018-06-21T01:22:00.398Z,19.2777777778
2018-06-21T01:22:12.811Z,19.2777777778
2018-06-21T01:22:25.219Z,19.2777777778
2018-06-21T01:22:37.610Z,19.2777777778
2018-06-21T01:22:50.013Z,19.2777777778
2018-06-21T01:23:02.423Z,19.2777777778
2018-06-21T01:23:14.827Z,19.2777777778
2018-06-21T01:23:27.225Z,19.2777777778
2018-06-21T01:23:39.616Z,19.2777777778
2018-06-21T01:23:52.054Z,19.2777777778
2018-06-21T01:24:04.481Z,19.2222222222
2018-06-21T01:24:16.882Z,19.2222222222
2018-06-21T01:24:29.280Z,19.2222222222
2018-06-21T01:24:41.677Z,19.2777777778
2018-06-21T01:24:54.074Z,19.2777777778
2018-06-21T01:25:06.484Z,19.2222222222
2018-06-21T01:25:18.945Z,19.2222222222
2018-06-21T01:25:32.366Z,19.2222222222
2018-06-21T01:25:44.799Z,19.2222222222
2018-06-21T01:25:57.255Z,19.2222222222
2018-06-21T01:26:09.744Z,19.2222222222
2018-06-21T01:26:22.143Z,19.2222222222
2018-06-21T01:26:34.568Z,19.2222222222
2018-06-21T01:26:46.979Z,19.2222222222
2018-06-21T01:26:59.409Z,19.1666666667
2018-06-21T01:27:11.817Z,19.2222222222
2018-06-21T01:27:24.222Z,19.1666666667
2018-06-21T01:27:36.657Z,19.1666666667
2018-06-21T01:27:49.061Z,19.1666666667
2018-06-21T01:28:01.513Z,19.1666666667
2018-06-21T01:28:14.195Z,19.1666666667
2018-06-21T01:28:26.597Z,19.1666666667
2018-06-21T01:28:39.006Z,19.1666666667
2018-06-21T01:28:51.492Z,19.1666666667
2018-06-21T01:29:04.113Z,19.1666666667
2018-06-21T01:29:16.560Z,19.1666666667
2018-06-21T01:29:28.962Z,19.1666666667
2018-06-21T01:29:41.370Z,19.1666666667
2018-06-21T01:29:53.756Z,19.1666666667
2018-06-21T01:30:06.155Z,19.1666666667
2018-06-21T01:30:18.545Z,19.1666666667
2018-06-21T01:30:30.966Z,19.1666666667
2018-06-21T01:30:43.381Z,19.1666666667
2018-06-21T01:30:55.830Z,19.1666666667
2018-06-21T01:31:08.249Z,19.1666666667
2018-06-21T01:31:20.652Z,19.1111111111
2018-06-21T01:31:33.067Z,19.1666666667
2018-06-21T01:31:45.489Z,19.1111111111
2018-06-21T01:31:57.889Z,19.1111111111
2018-06-21T01:32:10.282Z,19.1111111111
2018-06-21T01:32:22.681Z,19.1111111111
2018-06-21T01:32:35.088Z,19.1111111111
2018-06-21T01:32:47.500Z,19.1111111111
2018-06-21T01:32:59.925Z,19.1111111111
2018-06-21T01:33:12.353Z,19.1111111111
2018-06-21T01:33:24.952Z,19.1111111111
2018-06-21T01:33:37.351Z,19.1111111111
2018-06-21T01:33:49.742Z,19.1111111111
2018-06-21T01:34:02.191Z,19.1111111111
2018-06-21T01:34:14.588Z,19.0555555556
2018-06-21T01:34:27.000Z,19.0555555556
2018-06-21T01:34:39.441Z,19.0555555556
2018-06-21T01:34:51.912Z,19.0555555556
2018-06-21T01:35:04.328Z,19.0555555556
2018-06-21T01:35:16.760Z,19.0555555556
2018-06-21T01:35:29.186Z,19.0555555556
2018-06-21T01:35:41.586Z,19.0555555556
2018-06-21T01:35:53.969Z,19.0555555556
2018-06-21T01:36:06.363Z,19.0555555556
2018-06-21T01:36:18.749Z,19.0555555556
2018-06-21T01:36:31.203Z,19.0555555556
2018-06-21T01:36:43.617Z,19.0555555556
2018-06-21T01:36:56.076Z,19.0555555556
2018-06-21T01:37:08.509Z,19.0555555556
2018-06-21T01:37:20.912Z,19.0555555556
2018-06-21T01:37:33.302Z,19.0555555556
2018-06-21T01:37:45.694Z,19.0555555556
2018-06-21T01:37:58.106Z,19.0555555556
2018-06-21T01:38:10.505Z,19.0555555556
2018-06-21T01:38:22.958Z,19.0555555556
2018-06-21T01:38:35.388Z,19.0555555556
2018-06-21T01:38:47.823Z,19.0555555556
2018-06-21T01:39:00.393Z,19.0555555556
2018-06-21T01:39:12.839Z,19.0555555556
2018-06-21T01:39:25.287Z,19.0555555556
2018-06-21T01:39:37.714Z,19.0555555556
2018-06-21T01:39:50.126Z,19.0555555556
2018-06-21T01:40:02.553Z,19.0555555556
2018-06-21T01:40:15.078Z,19.0555555556
2018-06-21T01:40:27.505Z,19.0555555556
2018-06-21T01:40:39.917Z,19
2018-06-21T01:40:52.340Z,19.0555555556
2018-06-21T01:41:04.769Z,19
2018-06-21T01:41:17.285Z,19.0555555556
2018-06-21T01:41:29.692Z,19.0555555556
2018-06-21T01:41:42.096Z,19.0555555556
2018-06-21T01:41:54.495Z,19.0555555556
2018-06-21T01:42:06.976Z,19.0555555556
2018-06-21T01:42:19.387Z,19
2018-06-21T01:42:31.844Z,19.0555555556
2018-06-21T01:42:44.237Z,19
2018-06-21T01:42:56.651Z,19
2018-06-21T01:43:09.066Z,19.0555555556
2018-06-21T01:43:21.460Z,19.0555555556
2018-06-21T01:43:33.873Z,19
2018-06-21T01:43:46.280Z,19.0555555556
2018-06-21T01:43:58.712Z,19
2018-06-21T01:44:11.113Z,19
2018-06-21T01:44:23.527Z,19
2018-06-21T01:44:35.926Z,19.0555555556
2018-06-21T01:44:48.325Z,19
2018-06-21T01:45:00.737Z,19
2018-06-21T01:45:13.145Z,19.0555555556
2018-06-21T01:45:25.529Z,19
2018-06-21T01:45:37.966Z,19.0555555556
2018-06-21T01:45:50.373Z,19
2018-06-21T01:46:02.941Z,19
2018-06-21T01:46:15.356Z,19
2018-06-21T01:46:27.773Z,19
2018-06-21T01:46:40.200Z,19
2018-06-21T01:46:52.605Z,19
2018-06-21T01:47:05.263Z,18.9444444444
2018-06-21T01:47:17.654Z,19
2018-06-21T01:47:30.077Z,19
2018-06-21T01:47:42.474Z,19
2018-06-21T01:47:54.927Z,18.9444444444
2018-06-21T01:48:07.366Z,19
2018-06-21T01:48:19.761Z,19
2018-06-21T01:48:32.160Z,18.9444444444
2018-06-21T01:48:44.686Z,18.9444444444
2018-06-21T01:48:57.097Z,18.9444444444
2018-06-21T01:49:09.509Z,18.9444444444
2018-06-21T01:49:21.931Z,18.9444444444
2018-06-21T01:49:34.320Z,18.9444444444
2018-06-21T01:49:46.716Z,18.9444444444
2018-06-21T01:49:59.128Z,18.9444444444
2018-06-21T01:50:11.560Z,18.9444444444
2018-06-21T01:50:23.958Z,18.9444444444
2018-06-21T01:50:36.355Z,18.9444444444
2018-06-21T01:50:48.765Z,18.9444444444
2018-06-21T01:51:01.162Z,18.9444444444
2018-06-21T01:51:13.590Z,18.9444444444
2018-06-21T01:51:25.979Z,18.9444444444
2018-06-21T01:51:38.364Z,18.9444444444
2018-06-21T01:51:50.747Z,18.9444444444
2018-06-21T01:52:03.203Z,18.9444444444
2018-06-21T01:52:15.606Z,18.9444444444
2018-06-21T01:52:28.018Z,18.9444444444
2018-06-21T01:52:40.464Z,18.9444444444
2018-06-21T01:52:52.878Z,18.9444444444
2018-06-21T01:53:05.284Z,18.9444444444
2018-06-21T01:53:17.694Z,18.9444444444
2018-06-21T01:53:30.075Z,18.9444444444
2018-06-21T01:53:42.596Z,18.9444444444
2018-06-21T01:53:54.998Z,18.9444444444
2018-06-21T01:54:07.394Z,18.9444444444
2018-06-21T01:54:19.791Z,18.9444444444
2018-06-21T01:54:32.226Z,18.8888888889
2018-06-21T01:54:44.636Z,18.9444444444
2018-06-21T01:54:57.070Z,18.9444444444
2018-06-21T01:55:09.487Z,18.9444444444
2018-06-21T01:55:21.893Z,18.8888888889
2018-06-21T01:55:34.301Z,18.9444444444
2018-06-21T01:55:46.720Z,18.8888888889
2018-06-21T01:55:59.124Z,18.9444444444
2018-06-21T01:56:11.539Z,18.8888888889
2018-06-21T01:56:23.954Z,18.9444444444
2018-06-21T01:56:36.396Z,18.8888888889
2018-06-21T01:56:48.791Z,18.8888888889
2018-06-21T01:57:01.193Z,18.8888888889
2018-06-21T01:57:13.602Z,18.8888888889
2018-06-21T01:57:26.020Z,18.8888888889
2018-06-21T01:57:38.396Z,18.8888888889
2018-06-21T01:57:50.859Z,18.8888888889
2018-06-21T01:58:03.268Z,18.8888888889
2018-06-21T01:58:15.692Z,18.8888888889
2018-06-21T01:58:28.076Z,18.8888888889
2018-06-21T01:58:40.461Z,18.8888888889
2018-06-21T01:58:52.877Z,18.8888888889
2018-06-21T01:59:05.266Z,18.8888888889
2018-06-21T01:59:17.661Z,18.8888888889
2018-06-21T01:59:30.048Z,18.8888888889
2018-06-21T01:59:42.447Z,18.8888888889
2018-06-21T01:59:54.859Z,18.8888888889
2018-06-21T02:00:07.299Z,18.8888888889
2018-06-21T02:00:19.744Z,18.8888888889
2018-06-21T02:00:32.206Z,18.8888888889
2018-06-21T02:00:44.634Z,18.8888888889
2018-06-21T02:00:57.207Z,18.8888888889
2018-06-21T02:01:09.798Z,18.8888888889
2018-06-21T02:01:22.219Z,18.8888888889
2018-06-21T02:01:34.629Z,18.8333333333
2018-06-21T02:01:47.047Z,18.8333333333
2018-06-21T02:01:59.458Z,18.8888888889
2018-06-21T02:02:11.870Z,18.8888888889
2018-06-21T02:02:24.281Z,18.8888888889
2018-06-21T02:02:36.678Z,18.8333333333
2018-06-21T02:02:49.073Z,18.8888888889
2018-06-21T02:03:01.476Z,18.8333333333
2018-06-21T02:03:13.868Z,18.8888888889
2018-06-21T02:03:26.283Z,18.8333333333
2018-06-21T02:03:38.691Z,18.8333333333
2018-06-21T02:03:51.111Z,18.8333333333
2018-06-21T02:04:03.516Z,18.8333333333
2018-06-21T02:04:15.945Z,18.8333333333
2018-06-21T02:04:28.337Z,18.8333333333
2018-06-21T02:04:40.730Z,18.8333333333
2018-06-21T02:04:53.110Z,18.8333333333
2018-06-21T02:05:05.530Z,18.8333333333
2018-06-21T02:05:17.961Z,18.8333333333
2018-06-21T02:05:30.379Z,18.8333333333
2018-06-21T02:05:42.779Z,18.8333333333
2018-06-21T02:05:55.176Z,18.7777777778
2018-06-21T02:06:07.587Z,18.7777777778
2018-06-21T02:06:20.117Z,18.7777777778
2018-06-21T02:06:32.561Z,18.7777777778
2018-06-21T02:06:44.973Z,18.7777777778
2018-06-21T02:06:57.358Z,18.7777777778
2018-06-21T02:07:09.810Z,18.7777777778
2018-06-21T02:07:22.210Z,18.7777777778
2018-06-21T02:07:34.789Z,18.7777777778
2018-06-21T02:07:47.211Z,18.7777777778
2018-06-21T02:07:59.850Z,18.7777777778
2018-06-21T02:08:13.235Z,18.7777777778
2018-06-21T02:08:25.648Z,18.7222222222
2018-06-21T02:08:38.060Z,18.7777777778
2018-06-21T02:08:50.458Z,18.7222222222
2018-06-21T02:09:02.852Z,18.7777777778
2018-06-21T02:09:15.257Z,18.7777777778
2018-06-21T02:09:27.665Z,18.7222222222
2018-06-21T02:09:40.053Z,18.7222222222
2018-06-21T02:09:52.440Z,18.7222222222
2018-06-21T02:10:04.867Z,18.7222222222
2018-06-21T02:10:17.299Z,18.7222222222
2018-06-21T02:10:29.702Z,18.7222222222
2018-06-21T02:10:42.113Z,18.7222222222
2018-06-21T02:10:54.512Z,18.7222222222
2018-06-21T02:11:06.928Z,18.7222222222